sensor_id;sensor_type;location;lat;lon;timestamp;temperature;humidity
42489;DHT22;28118;52.388;9.452;2022-08-18T00:01:36;20.50;99.90
42489;DHT22;28118;52.388;9.452;2022-08-18T00:04:08;20.50;99.90
42489;DHT22;28118;52.388;9.452;2022-08-18T00:06:55;20.40;99.90
42489;DHT22;28118;52.388;9.452;2022-08-18T00:09:22;20.40;99.90
42489;DHT22;28118;52.388;9.452;2022-08-18T00:11:48;20.40;99.90
42489;DHT22;28118;52.388;9.452;2022-08-18T00:14:18;20.50;99.90
42489;DHT22;28118;52.388;9.452;2022-08-18T00:16:51;20.40;99.90
42489;DHT22;28118;52.388;9.452;2022-08-18T00:19:19;20.40;99.90
42489;DHT22;28118;52.388;9.452;2022-08-18T00:22:06;20.40;99.90
42489;DHT22;28118;52.388;9.452;2022-08-18T00:24:33;20.40;99.90
42489;DHT22;28118;52.388;9.452;2022-08-18T00:27:00;20.30;99.90
42489;DHT22;28118;52.388;9.452;2022-08-18T00:29:27;20.30;99.90
42489;DHT22;28118;52.388;9.452;2022-08-18T00:31:54;20.30;99.90
42489;DHT22;28118;52.388;9.452;2022-08-18T00:34:20;20.20;99.90
42489;DHT22;28118;52.388;9.452;2022-08-18T00:36:47;20.20;99.90
42489;DHT22;28118;52.388;9.452;2022-08-18T00:39:15;20.30;99.90
42489;DHT22;28118;52.388;9.452;2022-08-18T00:41:42;20.30;99.90
42489;DHT22;28118;52.388;9.452;2022-08-18T00:44:09;20.30;99.90
42489;DHT22;28118;52.388;9.452;2022-08-18T00:46:36;20.20;99.90
42489;DHT22;28118;52.388;9.452;2022-08-18T00:49:04;20.20;99.90
42489;DHT22;28118;52.388;9.452;2022-08-18T00:51:42;20.20;99.90
42489;DHT22;28118;52.388;9.452;2022-08-18T00:54:24;20.30;99.90
42489;DHT22;28118;52.388;9.452;2022-08-18T00:56:54;20.20;99.90
42489;DHT22;28118;52.388;9.452;2022-08-18T01:01:56;20.10;99.90
42489;DHT22;28118;52.388;9.452;2022-08-18T01:04:36;20.00;99.90
42489;DHT22;28118;52.388;9.452;2022-08-18T01:07:13;19.90;99.90
42489;DHT22;28118;52.388;9.452;2022-08-18T01:09:43;19.90;99.90
42489;DHT22;28118;52.388;9.452;2022-08-18T01:12:10;19.90;99.90
42489;DHT22;28118;52.388;9.452;2022-08-18T01:14:57;19.90;99.90
42489;DHT22;28118;52.388;9.452;2022-08-18T01:17:24;19.90;99.90
42489;DHT22;28118;52.388;9.452;2022-08-18T01:20:16;20.00;99.90
42489;DHT22;28118;52.388;9.452;2022-08-18T01:23:05;20.00;99.90
42489;DHT22;28118;52.388;9.452;2022-08-18T01:25:36;20.00;99.90
42489;DHT22;28118;52.388;9.452;2022-08-18T01:28:22;19.90;99.90
42489;DHT22;28118;52.388;9.452;2022-08-18T01:30:51;19.90;99.90
42489;DHT22;28118;52.388;9.452;2022-08-18T01:33:18;19.80;99.90
42489;DHT22;28118;52.388;9.452;2022-08-18T01:35:47;19.80;99.90
42489;DHT22;28118;52.388;9.452;2022-08-18T01:38:16;19.70;99.90
42489;DHT22;28118;52.388;9.452;2022-08-18T01:40:45;19.70;99.90
42489;DHT22;28118;52.388;9.452;2022-08-18T01:43:33;19.60;99.90
42489;DHT22;28118;52.388;9.452;2022-08-18T01:46:02;19.60;99.90
42489;DHT22;28118;52.388;9.452;2022-08-18T01:48:30;19.50;99.90
42489;DHT22;28118;52.388;9.452;2022-08-18T01:51:02;19.50;99.90
42489;DHT22;28118;52.388;9.452;2022-08-18T01:53:30;19.50;99.90
42489;DHT22;28118;52.388;9.452;2022-08-18T01:55:56;19.40;99.90
42489;DHT22;28118;52.388;9.452;2022-08-18T01:58:23;19.40;99.90
42489;DHT22;28118;52.388;9.452;2022-08-18T02:00:58;19.40;99.90
42489;DHT22;28118;52.388;9.452;2022-08-18T02:03:40;19.40;99.90
42489;DHT22;28118;52.388;9.452;2022-08-18T02:06:10;19.40;99.90
42489;DHT22;28118;52.388;9.452;2022-08-18T02:08:40;19.40;99.90
42489;DHT22;28118;52.388;9.452;2022-08-18T02:11:12;19.40;99.90
42489;DHT22;28118;52.388;9.452;2022-08-18T02:13:39;19.40;99.90
42489;DHT22;28118;52.388;9.452;2022-08-18T02:16:06;19.40;99.90
42489;DHT22;28118;52.388;9.452;2022-08-18T02:18:34;19.40;99.90
42489;DHT22;28118;52.388;9.452;2022-08-18T02:21:16;19.30;99.90
42489;DHT22;28118;52.388;9.452;2022-08-18T02:23:45;19.30;99.90
42489;DHT22;28118;52.388;9.452;2022-08-18T02:26:20;19.20;99.90
42489;DHT22;28118;52.388;9.452;2022-08-18T02:28:46;19.10;99.90
42489;DHT22;28118;52.388;9.452;2022-08-18T02:31:16;19.10;99.90
42489;DHT22;28118;52.388;9.452;2022-08-18T02:33:44;19.10;99.90
42489;DHT22;28118;52.388;9.452;2022-08-18T02:36:19;19.00;99.90
42489;DHT22;28118;52.388;9.452;2022-08-18T02:38:46;19.00;99.90
42489;DHT22;28118;52.388;9.452;2022-08-18T02:41:24;19.00;99.90
42489;DHT22;28118;52.388;9.452;2022-08-18T02:43:56;18.90;99.90
42489;DHT22;28118;52.388;9.452;2022-08-18T02:46:22;18.90;99.90
42489;DHT22;28118;52.388;9.452;2022-08-18T02:48:56;18.90;99.90
42489;DHT22;28118;52.388;9.452;2022-08-18T02:51:22;18.80;99.90
42489;DHT22;28118;52.388;9.452;2022-08-18T02:53:52;18.80;99.90
42489;DHT22;28118;52.388;9.452;2022-08-18T02:56:24;18.80;99.90
42489;DHT22;28118;52.388;9.452;2022-08-18T02:59:10;18.70;99.90
42489;DHT22;28118;52.388;9.452;2022-08-18T03:01:40;18.60;99.90
42489;DHT22;28118;52.388;9.452;2022-08-18T03:04:10;18.60;99.90
42489;DHT22;28118;52.388;9.452;2022-08-18T03:06:37;18.60;99.90
42489;DHT22;28118;52.388;9.452;2022-08-18T03:09:06;18.60;99.90
42489;DHT22;28118;52.388;9.452;2022-08-18T03:11:33;18.60;99.90
42489;DHT22;28118;52.388;9.452;2022-08-18T03:14:00;18.50;99.90
42489;DHT22;28118;52.388;9.452;2022-08-18T03:16:27;18.50;99.90
42489;DHT22;28118;52.388;9.452;2022-08-18T03:18:59;18.60;99.90
42489;DHT22;28118;52.388;9.452;2022-08-18T03:21:28;18.60;99.90
42489;DHT22;28118;52.388;9.452;2022-08-18T03:23:56;18.60;99.90
42489;DHT22;28118;52.388;9.452;2022-08-18T03:26:29;18.60;99.90
42489;DHT22;28118;52.388;9.452;2022-08-18T03:28:57;18.50;99.90
42489;DHT22;28118;52.388;9.452;2022-08-18T03:31:27;18.50;99.90
42489;DHT22;28118;52.388;9.452;2022-08-18T03:33:56;18.50;99.90
42489;DHT22;28118;52.388;9.452;2022-08-18T03:36:28;18.40;99.90
42489;DHT22;28118;52.388;9.452;2022-08-18T03:38:58;18.40;99.90
42489;DHT22;28118;52.388;9.452;2022-08-18T03:41:27;18.40;99.90
42489;DHT22;28118;52.388;9.452;2022-08-18T03:44:14;18.30;99.90
42489;DHT22;28118;52.388;9.452;2022-08-18T03:46:43;18.30;99.90
42489;DHT22;28118;52.388;9.452;2022-08-18T03:49:10;18.30;99.90
42489;DHT22;28118;52.388;9.452;2022-08-18T03:51:38;18.30;99.90
42489;DHT22;28118;52.388;9.452;2022-08-18T03:54:06;18.30;99.90
42489;DHT22;28118;52.388;9.452;2022-08-18T03:56:35;18.30;99.90
42489;DHT22;28118;52.388;9.452;2022-08-18T03:59:21;18.20;99.90
42489;DHT22;28118;52.388;9.452;2022-08-18T04:01:50;18.20;99.90
42489;DHT22;28118;52.388;9.452;2022-08-18T04:04:25;18.20;99.90
42489;DHT22;28118;52.388;9.452;2022-08-18T04:06:55;18.20;99.90
42489;DHT22;28118;52.388;9.452;2022-08-18T04:09:28;18.10;99.90
42489;DHT22;28118;52.388;9.452;2022-08-18T04:11:56;18.10;99.90
42489;DHT22;28118;52.388;9.452;2022-08-18T04:14:25;18.00;99.90
42489;DHT22;28118;52.388;9.452;2022-08-18T04:16:56;18.00;99.90
42489;DHT22;28118;52.388;9.452;2022-08-18T04:19:24;18.00;99.90
42489;DHT22;28118;52.388;9.452;2022-08-18T04:21:54;17.90;99.90
42489;DHT22;28118;52.388;9.452;2022-08-18T04:24:21;17.90;99.90
42489;DHT22;28118;52.388;9.452;2022-08-18T04:26:48;17.80;99.90
42489;DHT22;28118;52.388;9.452;2022-08-18T04:29:17;17.80;99.90
42489;DHT22;28118;52.388;9.452;2022-08-18T04:31:45;17.80;99.90
42489;DHT22;28118;52.388;9.452;2022-08-18T04:34:12;17.80;99.90
42489;DHT22;28118;52.388;9.452;2022-08-18T04:36:40;17.80;99.90
42489;DHT22;28118;52.388;9.452;2022-08-18T04:39:09;17.80;99.90
42489;DHT22;28118;52.388;9.452;2022-08-18T04:41:37;17.80;99.90
42489;DHT22;28118;52.388;9.452;2022-08-18T04:44:06;17.80;99.90
42489;DHT22;28118;52.388;9.452;2022-08-18T04:46:37;17.80;99.90
42489;DHT22;28118;52.388;9.452;2022-08-18T04:49:06;17.80;99.90
42489;DHT22;28118;52.388;9.452;2022-08-18T04:51:35;17.80;99.90
42489;DHT22;28118;52.388;9.452;2022-08-18T04:54:23;17.80;99.90
42489;DHT22;28118;52.388;9.452;2022-08-18T04:56:50;17.80;99.90
42489;DHT22;28118;52.388;9.452;2022-08-18T04:59:17;17.90;99.90
42489;DHT22;28118;52.388;9.452;2022-08-18T05:01:46;17.90;99.90
42489;DHT22;28118;52.388;9.452;2022-08-18T05:04:15;18.00;99.90
42489;DHT22;28118;52.388;9.452;2022-08-18T05:06:43;18.00;99.90
42489;DHT22;28118;52.388;9.452;2022-08-18T05:09:12;18.10;99.90
42489;DHT22;28118;52.388;9.452;2022-08-18T05:11:49;18.10;99.90
42489;DHT22;28118;52.388;9.452;2022-08-18T05:14:16;18.20;99.90
42489;DHT22;28118;52.388;9.452;2022-08-18T05:16:43;18.20;99.90
42489;DHT22;28118;52.388;9.452;2022-08-18T05:19:16;18.20;99.90
42489;DHT22;28118;52.388;9.452;2022-08-18T05:21:50;18.30;99.90
42489;DHT22;28118;52.388;9.452;2022-08-18T05:24:19;18.30;99.90
42489;DHT22;28118;52.388;9.452;2022-08-18T05:26:47;18.30;99.90
42489;DHT22;28118;52.388;9.452;2022-08-18T05:29:15;18.40;99.90
42489;DHT22;28118;52.388;9.452;2022-08-18T05:31:44;18.40;99.90
42489;DHT22;28118;52.388;9.452;2022-08-18T05:34:11;18.30;99.90
42489;DHT22;28118;52.388;9.452;2022-08-18T05:39:21;18.60;99.90
42489;DHT22;28118;52.388;9.452;2022-08-18T05:41:50;18.70;99.90
42489;DHT22;28118;52.388;9.452;2022-08-18T05:44:26;18.90;99.90
42489;DHT22;28118;52.388;9.452;2022-08-18T05:46:57;19.10;99.90
42489;DHT22;28118;52.388;9.452;2022-08-18T05:49:26;19.10;99.90
42489;DHT22;28118;52.388;9.452;2022-08-18T05:52:04;19.10;99.90
42489;DHT22;28118;52.388;9.452;2022-08-18T05:54:42;19.10;99.90
42489;DHT22;28118;52.388;9.452;2022-08-18T05:57:39;19.10;99.90
42489;DHT22;28118;52.388;9.452;2022-08-18T06:00:07;19.20;99.90
42489;DHT22;28118;52.388;9.452;2022-08-18T06:02:43;19.30;99.90
42489;DHT22;28118;52.388;9.452;2022-08-18T06:05:23;19.30;99.90
42489;DHT22;28118;52.388;9.452;2022-08-18T06:08:15;19.30;99.90
42489;DHT22;28118;52.388;9.452;2022-08-18T06:10:44;19.30;99.90
42489;DHT22;28118;52.388;9.452;2022-08-18T06:13:12;19.50;99.90
42489;DHT22;28118;52.388;9.452;2022-08-18T06:31:43;19.70;99.90
42489;DHT22;28118;52.388;9.452;2022-08-18T06:34:36;19.70;99.90
42489;DHT22;28118;52.388;9.452;2022-08-18T06:37:17;19.60;99.90
42489;DHT22;28118;52.388;9.452;2022-08-18T06:39:50;19.70;99.90
42489;DHT22;28118;52.388;9.452;2022-08-18T06:42:18;19.60;99.90
42489;DHT22;28118;52.388;9.452;2022-08-18T06:44:50;19.50;99.90
42489;DHT22;28118;52.388;9.452;2022-08-18T06:50:22;19.40;99.90
42489;DHT22;28118;52.388;9.452;2022-08-18T06:53:03;19.50;99.90
42489;DHT22;28118;52.388;9.452;2022-08-18T06:55:39;19.60;99.90
42489;DHT22;28118;52.388;9.452;2022-08-18T07:03:40;19.60;99.90
42489;DHT22;28118;52.388;9.452;2022-08-18T07:08:47;19.60;99.90
42489;DHT22;28118;52.388;9.452;2022-08-18T07:11:23;19.50;99.90
42489;DHT22;28118;52.388;9.452;2022-08-18T07:13:52;19.40;99.90
42489;DHT22;28118;52.388;9.452;2022-08-18T07:16:39;19.40;99.90
42489;DHT22;28118;52.388;9.452;2022-08-18T07:19:27;19.40;99.90
42489;DHT22;28118;52.388;9.452;2022-08-18T07:22:06;19.50;99.90
42489;DHT22;28118;52.388;9.452;2022-08-18T07:24:44;19.70;99.90
42489;DHT22;28118;52.388;9.452;2022-08-18T07:27:38;19.80;99.90
42489;DHT22;28118;52.388;9.452;2022-08-18T07:30:23;19.80;99.90
42489;DHT22;28118;52.388;9.452;2022-08-18T07:35:48;20.00;99.90
42489;DHT22;28118;52.388;9.452;2022-08-18T07:38:33;20.00;99.90
42489;DHT22;28118;52.388;9.452;2022-08-18T07:41:19;20.00;99.90
42489;DHT22;28118;52.388;9.452;2022-08-18T07:49:15;20.40;99.90
42489;DHT22;28118;52.388;9.452;2022-08-18T07:52:02;20.50;99.90
42489;DHT22;28118;52.388;9.452;2022-08-18T08:00:39;20.80;99.90
42489;DHT22;28118;52.388;9.452;2022-08-18T08:09:24;21.10;99.90
42489;DHT22;28118;52.388;9.452;2022-08-18T08:11:56;21.20;99.90
42489;DHT22;28118;52.388;9.452;2022-08-18T08:23:00;21.50;99.90
42489;DHT22;28118;52.388;9.452;2022-08-18T08:31:08;21.90;99.90
42489;DHT22;28118;52.388;9.452;2022-08-18T08:36:48;21.90;99.90
42489;DHT22;28118;52.388;9.452;2022-08-18T08:39:34;22.30;99.90
42489;DHT22;28118;52.388;9.452;2022-08-18T08:45:17;22.00;99.90
42489;DHT22;28118;52.388;9.452;2022-08-18T08:48:15;21.90;99.90
42489;DHT22;28118;52.388;9.452;2022-08-18T08:50:53;22.10;99.90
42489;DHT22;28118;52.388;9.452;2022-08-18T08:53:26;22.20;99.90
42489;DHT22;28118;52.388;9.452;2022-08-18T08:55:58;22.30;99.90
42489;DHT22;28118;52.388;9.452;2022-08-18T08:58:48;22.30;99.90
42489;DHT22;28118;52.388;9.452;2022-08-18T09:01:51;22.30;99.90
42489;DHT22;28118;52.388;9.452;2022-08-18T09:04:51;22.50;99.90
42489;DHT22;28118;52.388;9.452;2022-08-18T09:10:39;22.50;99.90
42489;DHT22;28118;52.388;9.452;2022-08-18T09:14:01;22.60;99.90
42489;DHT22;28118;52.388;9.452;2022-08-18T09:19:25;22.70;99.90
42489;DHT22;28118;52.388;9.452;2022-08-18T09:24:44;22.60;99.90
42489;DHT22;28118;52.388;9.452;2022-08-18T09:27:42;22.90;99.90
42489;DHT22;28118;52.388;9.452;2022-08-18T09:41:55;23.00;99.90
42489;DHT22;28118;52.388;9.452;2022-08-18T09:47:08;23.80;99.90
42489;DHT22;28118;52.388;9.452;2022-08-18T09:49:47;23.90;99.90
42489;DHT22;28118;52.388;9.452;2022-08-18T09:58:58;24.10;99.90
42489;DHT22;28118;52.388;9.452;2022-08-18T10:06:41;23.80;99.90
42489;DHT22;28118;52.388;9.452;2022-08-18T10:12:20;23.90;99.90
42489;DHT22;28118;52.388;9.452;2022-08-18T10:15:23;23.80;99.90
42489;DHT22;28118;52.388;9.452;2022-08-18T10:20:59;24.20;99.90
42489;DHT22;28118;52.388;9.452;2022-08-18T10:23:49;24.40;99.90
42489;DHT22;28118;52.388;9.452;2022-08-18T10:36:59;24.70;99.90
42489;DHT22;28118;52.388;9.452;2022-08-18T10:42:32;25.00;99.90
42489;DHT22;28118;52.388;9.452;2022-08-18T10:45:35;25.40;99.90
42489;DHT22;28118;52.388;9.452;2022-08-18T10:48:28;25.30;99.90
42489;DHT22;28118;52.388;9.452;2022-08-18T10:51:19;25.70;99.90
42489;DHT22;28118;52.388;9.452;2022-08-18T10:53:53;25.50;99.90
42489;DHT22;28118;52.388;9.452;2022-08-18T10:56:46;25.70;99.90
42489;DHT22;28118;52.388;9.452;2022-08-18T11:05:29;26.00;99.90
42489;DHT22;28118;52.388;9.452;2022-08-18T11:08:18;26.10;99.90
42489;DHT22;28118;52.388;9.452;2022-08-18T11:10:47;25.80;99.90
42489;DHT22;28118;52.388;9.452;2022-08-18T11:16:36;25.40;99.90
42489;DHT22;28118;52.388;9.452;2022-08-18T11:19:12;25.00;99.90
42489;DHT22;28118;52.388;9.452;2022-08-18T11:21:45;24.90;99.90
42489;DHT22;28118;52.388;9.452;2022-08-18T11:26:54;25.40;99.90
42489;DHT22;28118;52.388;9.452;2022-08-18T11:29:35;25.80;99.90
42489;DHT22;28118;52.388;9.452;2022-08-18T11:32:08;25.70;99.90
42489;DHT22;28118;52.388;9.452;2022-08-18T11:34:46;25.30;99.90
42489;DHT22;28118;52.388;9.452;2022-08-18T11:37:37;24.90;99.90
42489;DHT22;28118;52.388;9.452;2022-08-18T11:43:19;25.00;99.90
42489;DHT22;28118;52.388;9.452;2022-08-18T11:51:18;25.20;99.90
42489;DHT22;28118;52.388;9.452;2022-08-18T11:56:38;25.00;99.90
42489;DHT22;28118;52.388;9.452;2022-08-18T11:59:30;25.50;99.90
42489;DHT22;28118;52.388;9.452;2022-08-18T12:02:18;25.30;99.90
42489;DHT22;28118;52.388;9.452;2022-08-18T12:04:50;25.30;99.90
42489;DHT22;28118;52.388;9.452;2022-08-18T12:07:39;25.40;99.90
42489;DHT22;28118;52.388;9.452;2022-08-18T12:10:27;25.20;99.90
42489;DHT22;28118;52.388;9.452;2022-08-18T12:13:22;25.10;99.90
42489;DHT22;28118;52.388;9.452;2022-08-18T12:16:11;25.70;99.90
42489;DHT22;28118;52.388;9.452;2022-08-18T12:18:38;26.30;99.90
42489;DHT22;28118;52.388;9.452;2022-08-18T12:21:08;26.30;99.90
42489;DHT22;28118;52.388;9.452;2022-08-18T12:23:38;26.00;99.90
42489;DHT22;28118;52.388;9.452;2022-08-18T12:26:15;26.00;99.90
42489;DHT22;28118;52.388;9.452;2022-08-18T12:29:02;26.40;99.90
42489;DHT22;28118;52.388;9.452;2022-08-18T12:31:28;27.10;99.90
42489;DHT22;28118;52.388;9.452;2022-08-18T12:34:13;26.90;99.90
42489;DHT22;28118;52.388;9.452;2022-08-18T12:36:41;27.30;99.90
42489;DHT22;28118;52.388;9.452;2022-08-18T12:39:09;27.00;99.90
42489;DHT22;28118;52.388;9.452;2022-08-18T12:41:36;27.00;99.90
42489;DHT22;28118;52.388;9.452;2022-08-18T12:44:03;26.50;99.90
42489;DHT22;28118;52.388;9.452;2022-08-18T12:46:39;26.20;99.90
42489;DHT22;28118;52.388;9.452;2022-08-18T12:49:15;25.90;99.90
42489;DHT22;28118;52.388;9.452;2022-08-18T12:51:43;25.80;99.90
42489;DHT22;28118;52.388;9.452;2022-08-18T12:54:10;26.10;99.90
42489;DHT22;28118;52.388;9.452;2022-08-18T12:56:39;26.30;99.90
42489;DHT22;28118;52.388;9.452;2022-08-18T12:59:08;26.20;99.90
42489;DHT22;28118;52.388;9.452;2022-08-18T13:01:37;26.30;99.90
42489;DHT22;28118;52.388;9.452;2022-08-18T13:04:05;26.30;99.90
42489;DHT22;28118;52.388;9.452;2022-08-18T13:06:53;26.40;99.90
42489;DHT22;28118;52.388;9.452;2022-08-18T13:09:29;27.00;99.90
42489;DHT22;28118;52.388;9.452;2022-08-18T13:12:13;28.10;99.90
42489;DHT22;28118;52.388;9.452;2022-08-18T13:14:42;27.80;99.90
42489;DHT22;28118;52.388;9.452;2022-08-18T13:17:11;27.60;99.90
42489;DHT22;28118;52.388;9.452;2022-08-18T13:19:58;27.40;99.90
42489;DHT22;28118;52.388;9.452;2022-08-18T13:22:26;26.90;99.90
42489;DHT22;28118;52.388;9.452;2022-08-18T13:25:00;27.30;99.90
42489;DHT22;28118;52.388;9.452;2022-08-18T13:27:27;27.80;99.90
42489;DHT22;28118;52.388;9.452;2022-08-18T13:30:04;28.80;99.90
42489;DHT22;28118;52.388;9.452;2022-08-18T13:32:51;28.30;99.90
42489;DHT22;28118;52.388;9.452;2022-08-18T13:35:28;29.10;99.40
42489;DHT22;28118;52.388;9.452;2022-08-18T13:38:04;28.70;99.30
42489;DHT22;28118;52.388;9.452;2022-08-18T13:40:46;29.40;98.80
42489;DHT22;28118;52.388;9.452;2022-08-18T13:43:18;30.10;98.90
42489;DHT22;28118;52.388;9.452;2022-08-18T13:45:48;29.30;98.20
42489;DHT22;28118;52.388;9.452;2022-08-18T13:48:21;28.40;99.10
42489;DHT22;28118;52.388;9.452;2022-08-18T13:50:51;27.80;99.80
42489;DHT22;28118;52.388;9.452;2022-08-18T13:53:19;28.40;99.10
42489;DHT22;28118;52.388;9.452;2022-08-18T13:55:47;29.80;97.50
42489;DHT22;28118;52.388;9.452;2022-08-18T13:58:14;29.70;97.00
42489;DHT22;28118;52.388;9.452;2022-08-18T14:00:47;29.10;97.70
42489;DHT22;28118;52.388;9.452;2022-08-18T14:03:17;28.50;98.50
42489;DHT22;28118;52.388;9.452;2022-08-18T14:06:03;28.20;99.10
42489;DHT22;28118;52.388;9.452;2022-08-18T14:08:32;27.60;99.20
42489;DHT22;28118;52.388;9.452;2022-08-18T14:11:02;27.60;99.60
42489;DHT22;28118;52.388;9.452;2022-08-18T14:13:29;28.70;98.20
42489;DHT22;28118;52.388;9.452;2022-08-18T14:16:09;29.40;97.80
42489;DHT22;28118;52.388;9.452;2022-08-18T14:18:41;30.10;96.30
42489;DHT22;28118;52.388;9.452;2022-08-18T14:21:11;30.40;96.20
42489;DHT22;28118;52.388;9.452;2022-08-18T14:23:56;30.20;96.50
42489;DHT22;28118;52.388;9.452;2022-08-18T14:26:43;30.70;96.30
42489;DHT22;28118;52.388;9.452;2022-08-18T14:29:17;30.80;95.30
42489;DHT22;28118;52.388;9.452;2022-08-18T14:32:05;30.50;95.60
42489;DHT22;28118;52.388;9.452;2022-08-18T14:34:32;31.00;95.30
42489;DHT22;28118;52.388;9.452;2022-08-18T14:36:59;31.50;94.20
42489;DHT22;28118;52.388;9.452;2022-08-18T14:39:25;30.50;94.50
42489;DHT22;28118;52.388;9.452;2022-08-18T14:41:53;29.90;95.20
42489;DHT22;28118;52.388;9.452;2022-08-18T14:44:22;29.40;95.50
42489;DHT22;28118;52.388;9.452;2022-08-18T14:46:50;28.80;96.30
42489;DHT22;28118;52.388;9.452;2022-08-18T14:49:21;28.70;96.20
42489;DHT22;28118;52.388;9.452;2022-08-18T14:51:56;28.60;96.30
42489;DHT22;28118;52.388;9.452;2022-08-18T14:54:23;29.20;95.80
42489;DHT22;28118;52.388;9.452;2022-08-18T14:56:56;30.40;95.20
42489;DHT22;28118;52.388;9.452;2022-08-18T14:59:22;31.70;94.00
42489;DHT22;28118;52.388;9.452;2022-08-18T15:01:51;31.70;93.50
42489;DHT22;28118;52.388;9.452;2022-08-18T15:04:19;33.60;91.70
42489;DHT22;28118;52.388;9.452;2022-08-18T15:06:47;32.90;90.90
42489;DHT22;28118;52.388;9.452;2022-08-18T15:09:23;31.40;92.00
42489;DHT22;28118;52.388;9.452;2022-08-18T15:11:53;30.50;92.70
42489;DHT22;28118;52.388;9.452;2022-08-18T15:14:23;30.10;93.10
42489;DHT22;28118;52.388;9.452;2022-08-18T15:17:03;29.80;93.70
42489;DHT22;28118;52.388;9.452;2022-08-18T15:19:40;29.80;93.50
42489;DHT22;28118;52.388;9.452;2022-08-18T15:22:26;29.60;94.20
42489;DHT22;28118;52.388;9.452;2022-08-18T15:25:13;29.20;94.50
42489;DHT22;28118;52.388;9.452;2022-08-18T15:27:59;28.70;95.10
42489;DHT22;28118;52.388;9.452;2022-08-18T15:30:26;28.80;95.50
42489;DHT22;28118;52.388;9.452;2022-08-18T15:32:53;28.60;95.40
42489;DHT22;28118;52.388;9.452;2022-08-18T15:35:21;28.70;95.40
42489;DHT22;28118;52.388;9.452;2022-08-18T15:37:47;28.50;95.20
42489;DHT22;28118;52.388;9.452;2022-08-18T15:40:22;28.10;95.90
42489;DHT22;28118;52.388;9.452;2022-08-18T15:43:05;27.70;96.30
42489;DHT22;28118;52.388;9.452;2022-08-18T15:45:38;27.50;96.70
42489;DHT22;28118;52.388;9.452;2022-08-18T15:48:23;27.40;96.90
42489;DHT22;28118;52.388;9.452;2022-08-18T15:50:50;27.60;96.80
42489;DHT22;28118;52.388;9.452;2022-08-18T15:53:26;27.50;97.00
42489;DHT22;28118;52.388;9.452;2022-08-18T15:55:56;27.50;97.10
42489;DHT22;28118;52.388;9.452;2022-08-18T15:58:22;27.50;97.10
42489;DHT22;28118;52.388;9.452;2022-08-18T16:00:54;27.30;97.50
42489;DHT22;28118;52.388;9.452;2022-08-18T16:03:20;27.30;97.60
42489;DHT22;28118;52.388;9.452;2022-08-18T16:05:53;27.40;97.50
42489;DHT22;28118;52.388;9.452;2022-08-18T16:08:21;27.40;97.70
42489;DHT22;28118;52.388;9.452;2022-08-18T16:10:50;27.20;97.90
42489;DHT22;28118;52.388;9.452;2022-08-18T16:13:17;27.20;97.90
42489;DHT22;28118;52.388;9.452;2022-08-18T16:15:45;27.10;98.00
42489;DHT22;28118;52.388;9.452;2022-08-18T16:18:14;27.00;98.20
42489;DHT22;28118;52.388;9.452;2022-08-18T16:20:42;27.00;98.50
42489;DHT22;28118;52.388;9.452;2022-08-18T16:23:10;27.00;98.60
42489;DHT22;28118;52.388;9.452;2022-08-18T16:25:41;27.00;98.60
42489;DHT22;28118;52.388;9.452;2022-08-18T16:28:08;26.90;98.70
42489;DHT22;28118;52.388;9.452;2022-08-18T16:30:35;26.80;99.00
42489;DHT22;28118;52.388;9.452;2022-08-18T16:33:04;26.70;99.10
42489;DHT22;28118;52.388;9.452;2022-08-18T16:35:33;26.60;99.30
42489;DHT22;28118;52.388;9.452;2022-08-18T16:38:03;26.60;99.10
42489;DHT22;28118;52.388;9.452;2022-08-18T16:40:30;26.40;99.30
42489;DHT22;28118;52.388;9.452;2022-08-18T16:42:57;26.40;99.60
42489;DHT22;28118;52.388;9.452;2022-08-18T16:45:26;26.30;99.70
42489;DHT22;28118;52.388;9.452;2022-08-18T16:47:54;26.40;99.70
42489;DHT22;28118;52.388;9.452;2022-08-18T16:50:21;26.30;99.90
42489;DHT22;28118;52.388;9.452;2022-08-18T16:52:49;26.20;99.90
42489;DHT22;28118;52.388;9.452;2022-08-18T16:55:15;26.20;99.90
42489;DHT22;28118;52.388;9.452;2022-08-18T16:57:42;26.10;99.90
42489;DHT22;28118;52.388;9.452;2022-08-18T17:00:29;26.10;99.90
42489;DHT22;28118;52.388;9.452;2022-08-18T17:03:21;26.00;99.90
42489;DHT22;28118;52.388;9.452;2022-08-18T17:06:12;26.00;99.90
42489;DHT22;28118;52.388;9.452;2022-08-18T17:08:40;25.90;99.90
42489;DHT22;28118;52.388;9.452;2022-08-18T17:11:11;25.80;99.90
42489;DHT22;28118;52.388;9.452;2022-08-18T17:13:39;25.80;99.90
42489;DHT22;28118;52.388;9.452;2022-08-18T17:16:08;25.70;99.90
42489;DHT22;28118;52.388;9.452;2022-08-18T17:18:35;25.70;99.90
42489;DHT22;28118;52.388;9.452;2022-08-18T17:21:08;25.60;99.90
42489;DHT22;28118;52.388;9.452;2022-08-18T17:23:36;25.60;99.90
42489;DHT22;28118;52.388;9.452;2022-08-18T17:26:06;25.60;99.90
42489;DHT22;28118;52.388;9.452;2022-08-18T17:28:41;25.60;99.90
42489;DHT22;28118;52.388;9.452;2022-08-18T17:31:18;25.60;99.90
42489;DHT22;28118;52.388;9.452;2022-08-18T17:33:45;25.60;99.90
42489;DHT22;28118;52.388;9.452;2022-08-18T17:36:20;25.40;99.90
42489;DHT22;28118;52.388;9.452;2022-08-18T17:38:50;25.40;99.90
42489;DHT22;28118;52.388;9.452;2022-08-18T17:41:19;25.30;99.90
42489;DHT22;28118;52.388;9.452;2022-08-18T17:43:46;25.30;99.90
42489;DHT22;28118;52.388;9.452;2022-08-18T17:46:19;25.30;99.90
42489;DHT22;28118;52.388;9.452;2022-08-18T17:51:34;25.30;99.90
42489;DHT22;28118;52.388;9.452;2022-08-18T17:54:28;25.30;99.90
42489;DHT22;28118;52.388;9.452;2022-08-18T17:57:00;25.20;99.90
42489;DHT22;28118;52.388;9.452;2022-08-18T17:59:36;25.20;99.90
42489;DHT22;28118;52.388;9.452;2022-08-18T18:02:22;25.20;99.90
42489;DHT22;28118;52.388;9.452;2022-08-18T18:04:57;25.10;99.90
42489;DHT22;28118;52.388;9.452;2022-08-18T18:07:31;25.00;99.90
42489;DHT22;28118;52.388;9.452;2022-08-18T18:12:35;25.00;99.90
42489;DHT22;28118;52.388;9.452;2022-08-18T18:15:11;24.90;99.90
42489;DHT22;28118;52.388;9.452;2022-08-18T18:17:41;24.80;99.90
42489;DHT22;28118;52.388;9.452;2022-08-18T18:23:21;24.60;99.90
42489;DHT22;28118;52.388;9.452;2022-08-18T18:25:49;24.40;99.90
42489;DHT22;28118;52.388;9.452;2022-08-18T18:28:33;24.40;99.90
42489;DHT22;28118;52.388;9.452;2022-08-18T18:31:24;24.30;99.90
42489;DHT22;28118;52.388;9.452;2022-08-18T18:34:14;24.20;99.90
42489;DHT22;28118;52.388;9.452;2022-08-18T18:36:54;24.10;99.90
42489;DHT22;28118;52.388;9.452;2022-08-18T18:39:24;24.00;99.90
42489;DHT22;28118;52.388;9.452;2022-08-18T18:42:13;24.00;99.90
42489;DHT22;28118;52.388;9.452;2022-08-18T18:44:50;23.90;99.90
42489;DHT22;28118;52.388;9.452;2022-08-18T18:53:26;23.60;99.90
42489;DHT22;28118;52.388;9.452;2022-08-18T18:56:16;23.50;99.90
42489;DHT22;28118;52.388;9.452;2022-08-18T19:01:46;23.40;99.90